Time;durP1;ratioP1;P1;durP2;ratioP2;P2;SDS_P1;SDS_P2;PMS_P1;PMS_P2;Temp;Humidity;BMP_temperature;BMP_pressure;BME280_temperature;BME280_humidity;BME280_pressure;Samples;Min_cycle;Max_cycle;Signal;HPM_P1;HPM_P2
2021/03/02 00:02:03;;;;;;;;;;;;;;;-3.07;90.75;94205.88;1443134;39;20248;31
2021/03/02 00:03:08;;;;;;;;;;;;;;;-3.06;90.83;94204.03;1430322;39;20218;31
2021/03/02 00:05:27;;;;;;;;;;;;;;;-3.08;90.47;94209.53;1438732;39;21521;31
2021/03/02 00:06:32;;;;;;;;;;;;;;;-3.15;90.62;94206.63;1431958;39;21218;31
2021/03/02 00:07:45;;;;;;;;;;;;;;;-3.19;89.92;94210.91;1414110;39;20203;31
2021/03/02 00:08:59;;;;;;;;;;;;;;;-3.15;89.70;94206.63;1425942;39;20478;31
2021/03/02 00:10:13;;;;;;;;;;;;;;;-3.14;90.91;94210.75;1421914;39;20562;31
2021/03/02 00:11:27;;;;;;;;;;;;;;;-3.13;89.95;94204.44;1418392;39;20275;31
2021/03/02 00:12:32;;;;;;;;;;;;;;;-3.20;90.48;94208.59;1429179;39;20233;31
2021/03/02 00:16:01;;;;;;;;;;;;;;;-3.16;89.78;94215.53;1423014;39;21341;31
2021/03/02 00:18:32;;;;;;;;;;;;;;;-3.14;91.09;94210.75;1424903;39;20303;31
2021/03/02 00:19:40;;;;;;;;;;;;;;;-3.16;91.04;94220.75;1418621;40;20243;31
2021/03/02 00:23:03;;;;;;;;;;;;;;;-3.22;90.02;94213.34;1434601;39;21229;31
2021/03/02 00:26:15;;;;;;;;;;;;;;;-3.17;90.56;94215.81;1444179;39;20197;31
2021/03/02 00:29:25;;;;;;;;;;;;;;;-3.05;89.70;94219.41;1443775;39;20616;31
2021/03/02 00:32:37;;;;;;;;;;;;;;;-3.20;89.72;94214.59;1420334;39;20222;31
2021/03/02 00:34:54;;;;;;;;;;;;;;;-3.19;89.97;94213.50;1438254;39;20186;31
2021/03/02 00:36:08;;;;;;;;;;;;;;;-3.20;90.38;94213.81;1429245;39;20606;31
2021/03/02 00:37:13;;;;;;;;;;;;;;;-3.24;90.19;94221.50;1439400;39;20254;31
2021/03/02 00:39:33;;;;;;;;;;;;;;;-3.35;90.39;94213.12;1435172;39;21501;31
2021/03/02 00:43:39;;;;;;;;;;;;;;;-3.34;90.21;94216.50;1432743;39;20226;31
2021/03/02 00:44:53;;;;;;;;;;;;;;;-3.42;90.38;94215.41;1429728;39;20538;31
2021/03/02 00:45:58;;;;;;;;;;;;;;;-3.42;90.76;94219.88;1431052;39;21166;31
2021/03/02 00:47:02;;;;;;;;;;;;;;;-3.35;90.88;94214.97;1421192;39;20496;31
2021/03/02 00:50:39;;;;;;;;;;;;;;;-3.38;90.28;94212.94;1434901;39;21274;31
2021/03/02 00:51:45;;;;;;;;;;;;;;;-3.38;90.25;94210.34;1426364;39;20257;31
2021/03/02 00:53:52;;;;;;;;;;;;;;;-3.40;91.14;94208.03;1439944;39;21511;31
2021/03/02 00:57:20;;;;;;;;;;;;;;;-3.33;90.05;94210.22;1445228;39;21215;31
2021/03/02 00:58:34;;;;;;;;;;;;;;;-3.31;89.37;94205.47;1428912;39;21376;31
2021/03/02 00:59:48;;;;;;;;;;;;;;;-3.33;90.18;94212.84;1434330;39;20213;31
2021/03/02 01:00:53;;;;;;;;;;;;;;;-3.41;90.85;94208.34;1428458;39;21235;31
2021/03/02 01:01:55;;;;;;;;;;;;;;;-3.45;90.62;94216.00;1424636;39;20203;31
2021/03/02 01:05:18;;;;;;;;;;;;;;;-3.55;89.93;94208.44;1448182;39;22301;31
2021/03/02 01:07:24;;;;;;;;;;;;;;;-3.50;90.51;94212.75;1437061;39;20214;31
2021/03/02 01:08:37;;;;;;;;;;;;;;;-3.50;90.23;94210.91;1417235;39;20251;31
2021/03/02 01:09:51;;;;;;;;;;;;;;;-3.55;90.63;94206.59;1422781;39;20325;31
2021/03/02 01:11:05;;;;;;;;;;;;;;;-3.57;90.82;94203.50;1424637;39;20617;31
2021/03/02 01:12:10;;;;;;;;;;;;;;;-3.57;91.20;94218.41;1420965;39;20208;31
2021/03/02 01:14:31;;;;;;;;;;;;;;;-3.58;91.49;94207.19;1437310;39;20237;31
2021/03/02 01:15:34;;;;;;;;;;;;;;;-3.58;90.93;94206.41;1429909;39;20194;31
2021/03/02 01:17:56;;;;;;;;;;;;;;;-3.53;90.70;94208.87;1423398;39;20223;31
2021/03/02 01:19:00;;;;;;;;;;;;;;;-3.60;91.25;94214.56;1423350;39;20231;31
2021/03/02 01:20:02;;;;;;;;;;;;;;;-3.60;90.92;94211.94;1431814;39;22478;31
2021/03/02 01:22:20;;;;;;;;;;;;;;;-3.64;91.47;94210.22;1437106;39;20230;31
2021/03/02 01:23:25;;;;;;;;;;;;;;;-3.58;90.87;94209.03;1423987;39;22206;31
2021/03/02 01:24:29;;;;;;;;;;;;;;;-3.51;91.53;94208.59;1425725;39;20279;31
2021/03/02 01:25:40;;;;;;;;;;;;;;;-3.48;90.97;94208.75;1430800;39;20294;31
2021/03/02 01:26:43;;;;;;;;;;;;;;;-3.50;90.63;94202.31;1423097;39;20247;31
2021/03/02 01:27:48;;;;;;;;;;;;;;;-3.46;90.41;94208.47;1420892;39;20258;31
2021/03/02 01:30:05;;;;;;;;;;;;;;;-3.48;90.45;94202.75;1441725;39;20193;31
2021/03/02 01:31:20;;;;;;;;;;;;;;;-3.57;90.50;94205.34;1423515;39;20302;31
2021/03/02 01:32:33;;;;;;;;;;;;;;;-3.58;90.69;94196.72;1431434;39;20214;31
2021/03/02 01:33:47;;;;;;;;;;;;;;;-3.54;91.05;94204.75;1421414;39;21444;31
2021/03/02 01:35:01;;;;;;;;;;;;;;;-3.55;90.88;94201.37;1432888;39;20206;31
2021/03/02 01:36:06;;;;;;;;;;;;;;;-3.59;90.96;94210.88;1434274;39;20236;31
2021/03/02 01:42:03;;;;;;;;;;;;;;;-3.58;91.05;94199.34;1438836;39;20230;31
2021/03/02 01:45:24;;;;;;;;;;;;;;;-3.57;91.51;94205.34;1425835;39;20239;31
2021/03/02 01:46:38;;;;;;;;;;;;;;;-3.63;90.65;94196.09;1431717;39;20222;31
2021/03/02 01:49:21;;;;;;;;;;;;;;;-3.70;91.53;94201.72;1482290;39;20542;31
2021/03/02 01:50:25;;;;;;;;;;;;;;;-3.66;91.38;94199.28;1430552;39;21533;31
2021/03/02 01:52:37;;;;;;;;;;;;;;;-3.72;91.08;94203.88;1431456;39;20250;31
2021/03/02 01:53:50;;;;;;;;;;;;;;;-3.74;91.08;94203.38;1438060;39;20316;31
2021/03/02 01:55:04;;;;;;;;;;;;;;;-3.75;90.88;94201.09;1427184;39;21269;31
2021/03/02 01:56:19;;;;;;;;;;;;;;;-3.75;91.62;94198.47;1427489;39;21265;31
2021/03/02 01:57:32;;;;;;;;;;;;;;;-3.69;91.59;94202.50;1433523;39;20195;31
2021/03/02 01:58:46;;;;;;;;;;;;;;;-3.64;90.99;94203.16;1415565;39;20196;31
2021/03/02 02:01:12;;;;;;;;;;;;;;;-3.72;89.76;94200.50;1421118;39;20223;31
2021/03/02 02:02:25;;;;;;;;;;;;;;;-3.84;90.71;94201.03;1425476;39;20303;31
2021/03/02 02:03:39;;;;;;;;;;;;;;;-3.93;91.29;94184.53;1425111;39;21129;31
2021/03/02 02:04:53;;;;;;;;;;;;;;;-3.80;91.10;94194.91;1421127;39;20210;31
2021/03/02 02:06:08;;;;;;;;;;;;;;;-3.76;90.86;94192.47;1434038;39;21315;31
2021/03/02 02:07:22;;;;;;;;;;;;;;;-3.80;89.70;94199.38;1418830;39;21264;31
2021/03/02 02:08:36;;;;;;;;;;;;;;;-3.89;90.04;94201.16;1419555;39;21613;31
2021/03/02 02:09:50;;;;;;;;;;;;;;;-3.86;91.08;94196.13;1422976;39;21310;31
2021/03/02 02:10:58;;;;;;;;;;;;;;;-3.84;91.09;94199.19;1424117;39;20412;31
2021/03/02 02:13:37;;;;;;;;;;;;;;;-3.83;91.26;94197.34;1428488;39;21301;31
2021/03/02 02:14:54;;;;;;;;;;;;;;;-3.87;91.62;94197.16;1416883;39;20204;31
2021/03/02 02:16:01;;;;;;;;;;;;;;;-3.77;91.19;94198.78;1414337;39;20227;31
2021/03/02 02:17:07;;;;;;;;;;;;;;;-3.78;91.05;94199.06;1423598;39;20222;31
2021/03/02 02:19:25;;;;;;;;;;;;;;;-3.91;90.24;94191.00;1435836;39;20191;31
2021/03/02 02:20:45;;;;;;;;;;;;;;;-3.90;90.66;94197.78;1432191;39;20218;31
2021/03/02 02:23:02;;;;;;;;;;;;;;;-3.93;90.86;94198.38;1436157;39;22474;31
2021/03/02 02:24:16;;;;;;;;;;;;;;;-3.94;90.73;94196.84;1422998;39;20194;31
2021/03/02 02:25:29;;;;;;;;;;;;;;;-3.82;90.60;94202.28;1424508;39;21212;31
2021/03/02 02:26:43;;;;;;;;;;;;;;;-3.74;89.38;94195.56;1419991;39;20646;31
2021/03/02 02:27:49;;;;;;;;;;;;;;;-3.87;89.95;94199.78;1421139;39;20226;31
2021/03/02 02:28:53;;;;;;;;;;;;;;;-3.88;89.99;94200.09;1424801;39;20243;31
2021/03/02 02:30:07;;;;;;;;;;;;;;;-3.86;90.15;94203.94;1416684;39;22374;31
2021/03/02 02:31:12;;;;;;;;;;;;;;;-3.86;90.02;94203.19;1417144;39;20234;31
2021/03/02 02:33:30;;;;;;;;;;;;;;;-3.94;91.04;94204.66;1442034;39;21273;31
2021/03/02 02:34:44;;;;;;;;;;;;;;;-3.89;90.87;94201.94;1430070;39;21326;31
2021/03/02 02:35:58;;;;;;;;;;;;;;;-3.97;91.66;94209.69;1416651;39;20262;31
2021/03/02 02:37:04;;;;;;;;;;;;;;;-3.97;91.40;94207.09;1424194;39;20525;31
2021/03/02 02:39:13;;;;;;;;;;;;;;;-3.99;91.38;94198.78;1427970;39;20225;31
2021/03/02 02:40:19;;;;;;;;;;;;;;;-3.95;90.96;94207.56;1420677;39;21116;31
2021/03/02 02:44:18;;;;;;;;;;;;;;;-3.90;89.94;94207.47;1426790;39;21287;31
2021/03/02 02:45:23;;;;;;;;;;;;;;;-3.93;90.03;94202.81;1421998;39;20279;31
2021/03/02 02:46:27;;;;;;;;;;;;;;;-3.95;89.96;94207.56;1413094;40;20289;31
2021/03/02 02:47:40;;;;;;;;;;;;;;;-4.00;90.21;94205.06;1437836;39;20214;31
2021/03/02 02:48:46;;;;;;;;;;;;;;;-3.99;90.30;94215.22;1419328;39;20203;31
2021/03/02 02:49:51;;;;;;;;;;;;;;;-4.06;89.94;94204.41;1435189;39;21195;31
2021/03/02 02:52:33;;;;;;;;;;;;;;;-4.14;91.15;94211.13;1482452;39;21503;31
2021/03/02 02:53:38;;;;;;;;;;;;;;;-4.16;91.04;94205.44;1427752;39;20203;31
2021/03/02 02:54:40;;;;;;;;;;;;;;;-4.14;91.46;94210.34;1418874;39;20227;31
2021/03/02 02:56:49;;;;;;;;;;;;;;;-4.12;91.24;94203.78;1430287;39;20245;31
2021/03/02 02:59:25;;;;;;;;;;;;;;;-4.07;90.19;94210.72;1430751;39;20232;31
2021/03/02 03:00:38;;;;;;;;;;;;;;;-4.14;89.96;94207.72;1429945;39;20222;31
2021/03/02 03:01:53;;;;;;;;;;;;;;;-4.13;90.96;94204.06;1414465;39;20285;31
2021/03/02 03:04:04;;;;;;;;;;;;;;;-4.15;91.18;94208.81;1437174;39;20222;31
2021/03/02 03:06:38;;;;;;;;;;;;;;;-4.12;92.93;94209.00;1435997;39;21310;31
2021/03/02 03:07:55;;;;;;;;;;;;;;;-4.10;92.86;94212.06;1432544;39;20234;31
2021/03/02 03:09:01;;;;;;;;;;;;;;;-4.08;93.42;94206.56;1441435;39;21156;31
2021/03/02 03:10:14;;;;;;;;;;;;;;;-4.07;93.07;94203.66;1428622;39;21150;31
2021/03/02 03:13:56;;;;;;;;;;;;;;;-4.08;93.52;94209.94;1433663;39;20331;31
2021/03/02 03:15:10;;;;;;;;;;;;;;;-4.07;93.43;94213.31;1420928;39;20559;31
2021/03/02 03:16:25;;;;;;;;;;;;;;;-4.06;93.60;94210.41;1426828;39;20236;31
2021/03/02 03:17:38;;;;;;;;;;;;;;;-4.05;93.14;94204.12;1423866;39;20187;31
2021/03/02 03:18:52;;;;;;;;;;;;;;;-4.03;93.57;94205.69;1424475;39;20199;31
2021/03/02 03:20:06;;;;;;;;;;;;;;;-4.02;93.87;94207.97;1429853;39;20290;31
2021/03/02 03:21:20;;;;;;;;;;;;;;;-3.94;94.37;94209.88;1426113;39;20206;31
2021/03/02 03:22:34;;;;;;;;;;;;;;;-3.88;94.74;94208.69;1433903;39;20194;31
2021/03/02 03:23:48;;;;;;;;;;;;;;;-3.88;94.16;94208.69;1421538;39;22388;31
2021/03/02 03:25:02;;;;;;;;;;;;;;;-3.96;95.14;94206.00;1425540;39;21314;31
2021/03/02 03:26:08;;;;;;;;;;;;;;;-4.02;94.55;94213.22;1418927;39;21296;31
2021/03/02 03:29:33;;;;;;;;;;;;;;;-4.06;94.21;94207.03;1442966;39;20228;31
2021/03/02 03:30:38;;;;;;;;;;;;;;;-4.07;93.99;94211.47;1426662;39;21422;31
2021/03/02 03:31:51;;;;;;;;;;;;;;;-4.05;94.02;94214.56;1421795;39;21169;31
2021/03/02 03:32:54;;;;;;;;;;;;;;;-4.03;94.73;94211.66;1426975;39;20222;31
2021/03/02 03:35:36;;;;;;;;;;;;;;;-3.96;93.60;94206.00;1432825;39;21364;31
2021/03/02 03:36:43;;;;;;;;;;;;;;;-3.92;93.75;94202.50;1442845;39;20197;31
2021/03/02 03:40:06;;;;;;;;;;;;;;;-4.05;93.45;94206.72;1432531;39;21350;31
2021/03/02 03:44:50;;;;;;;;;;;;;;;-4.20;92.88;94207.09;1431734;39;21326;31
2021/03/02 03:46:04;;;;;;;;;;;;;;;-4.20;93.32;94217.53;1419753;39;20191;31
2021/03/02 03:47:18;;;;;;;;;;;;;;;-4.19;93.50;94206.00;1427238;39;20203;31
2021/03/02 03:48:32;;;;;;;;;;;;;;;-4.17;94.30;94208.31;1430991;39;20269;31
2021/03/02 03:49:46;;;;;;;;;;;;;;;-4.17;93.43;94203.09;1425689;39;20827;31
2021/03/02 03:51:01;;;;;;;;;;;;;;;-4.22;93.65;94200.59;1426927;39;20205;31
2021/03/02 03:52:14;;;;;;;;;;;;;;;-4.25;93.13;94203.81;1433193;39;20214;31
2021/03/02 03:56:27;;;;;;;;;;;;;;;-4.15;93.19;94208.81;1486532;39;20207;31
2021/03/02 03:57:41;;;;;;;;;;;;;;;-4.24;92.85;94193.09;1430045;39;21190;31
2021/03/02 03:58:55;;;;;;;;;;;;;;;-4.24;92.35;94206.13;1429514;39;20213;31
2021/03/02 04:00:00;;;;;;;;;;;;;;;-4.25;92.50;94198.59;1414506;39;20200;31
2021/03/02 04:01:13;;;;;;;;;;;;;;;-4.25;92.47;94206.44;1423495;39;21100;31
2021/03/02 04:02:27;;;;;;;;;;;;;;;-4.20;91.55;94206.31;1433277;39;20249;31
2021/03/02 04:03:41;;;;;;;;;;;;;;;-4.31;92.33;94198.69;1423144;39;20242;31
2021/03/02 04:04:55;;;;;;;;;;;;;;;-4.29;91.73;94205.47;1428310;39;20225;31
2021/03/02 04:06:01;;;;;;;;;;;;;;;-4.35;92.31;94205.56;1419157;39;20215;31
2021/03/02 04:07:14;;;;;;;;;;;;;;;-4.39;92.65;94203.84;1423379;39;20254;31
2021/03/02 04:08:19;;;;;;;;;;;;;;;-4.39;92.31;94203.84;1423852;39;20259;31
2021/03/02 04:09:32;;;;;;;;;;;;;;;-4.38;92.83;94200.19;1425174;39;20447;31
2021/03/02 04:10:46;;;;;;;;;;;;;;;-4.39;92.95;94204.62;1430101;39;20226;31
2021/03/02 04:13:04;;;;;;;;;;;;;;;-4.35;93.01;94199.59;1433535;39;21223;31
2021/03/02 04:15:46;;;;;;;;;;;;;;;-4.31;92.70;94210.97;1427387;39;21317;31
2021/03/02 04:17:00;;;;;;;;;;;;;;;-4.36;92.97;94198.03;1431746;39;21205;31
2021/03/02 04:18:14;;;;;;;;;;;;;;;-4.35;92.53;94199.59;1431561;39;20183;31
2021/03/02 04:19:28;;;;;;;;;;;;;;;-4.35;91.80;94202.19;1425623;39;21174;31
2021/03/02 04:20:42;;;;;;;;;;;;;;;-4.40;92.43;94203.06;1423790;39;20288;31
2021/03/02 04:21:56;;;;;;;;;;;;;;;-4.43;93.00;94203.69;1420176;39;20271;31
2021/03/02 04:23:10;;;;;;;;;;;;;;;-4.47;92.33;94202.72;1433897;39;20257;31
2021/03/02 04:24:15;;;;;;;;;;;;;;;-4.50;92.42;94208.53;1421077;39;20254;31
2021/03/02 04:26:31;;;;;;;;;;;;;;;-4.40;92.56;94203.06;1440239;39;21117;31
2021/03/02 04:27:36;;;;;;;;;;;;;;;-4.43;92.46;94208.13;1429775;39;20692;31
2021/03/02 04:28:38;;;;;;;;;;;;;;;-4.41;92.29;94203.38;1426910;39;20233;31
2021/03/02 04:29:40;;;;;;;;;;;;;;;-4.40;91.96;94203.06;1436315;39;20194;31
2021/03/02 04:30:53;;;;;;;;;;;;;;;-4.43;91.60;94203.69;1426844;39;20319;31
2021/03/02 04:31:59;;;;;;;;;;;;;;;-4.42;92.25;94210.44;1420352;39;21281;31
2021/03/02 04:34:16;;;;;;;;;;;;;;;-4.51;91.40;94208.81;1417707;39;20231;31
2021/03/02 04:35:30;;;;;;;;;;;;;;;-4.48;91.59;94210.81;1421136;39;20192;31
2021/03/02 04:36:33;;;;;;;;;;;;;;;-4.47;92.34;94209.78;1420266;39;22481;31
2021/03/02 04:40:31;;;;;;;;;;;;;;;-4.49;92.03;94209.28;1431529;39;20230;31
2021/03/02 04:41:45;;;;;;;;;;;;;;;-4.47;91.87;94218.38;1420620;39;21200;31
2021/03/02 04:42:59;;;;;;;;;;;;;;;-4.50;91.25;94212.97;1426973;39;20221;31
2021/03/02 04:44:13;;;;;;;;;;;;;;;-4.52;91.72;94209.88;1424197;39;21235;31
2021/03/02 04:45:27;;;;;;;;;;;;;;;-4.54;92.17;94212.78;1415502;39;20266;31
2021/03/02 04:46:31;;;;;;;;;;;;;;;-4.53;92.24;94214.31;1424608;39;20206;31
2021/03/02 04:50:07;;;;;;;;;;;;;;;-4.40;91.76;94210.91;1430951;39;21218;31
2021/03/02 04:51:11;;;;;;;;;;;;;;;-4.42;90.51;94212.28;1428846;39;20323;31
2021/03/02 04:54:28;;;;;;;;;;;;;;;-4.42;90.61;94214.88;1441334;39;22561;31
2021/03/02 04:58:05;;;;;;;;;;;;;;;-4.58;90.24;94217.81;1424620;39;21369;31
2021/03/02 04:59:09;;;;;;;;;;;;;;;-4.61;90.75;94225.44;1422490;39;20291;31
2021/03/02 05:00:22;;;;;;;;;;;;;;;-4.66;90.73;94225.56;1423219;39;21096;31
2021/03/02 05:01:36;;;;;;;;;;;;;;;-4.66;91.55;94228.16;1433746;39;21204;31
2021/03/02 05:02:50;;;;;;;;;;;;;;;-4.64;91.72;94221.59;1429957;39;22323;31
2021/03/02 05:03:55;;;;;;;;;;;;;;;-4.65;91.56;94221.91;1436900;39;21188;31
2021/03/02 05:04:57;;;;;;;;;;;;;;;-4.68;91.57;94227.69;1433528;39;20284;31
2021/03/02 05:09:37;;;;;;;;;;;;;;;-4.68;92.33;94220.62;1421191;39;22409;31
2021/03/02 05:10:41;;;;;;;;;;;;;;;-4.68;92.27;94228.47;1421466;39;21264;31
2021/03/02 05:11:45;;;;;;;;;;;;;;;-4.69;92.32;94229.53;1422648;39;20258;31
2021/03/02 05:12:58;;;;;;;;;;;;;;;-4.69;92.71;94224.31;1425191;39;21214;31
2021/03/02 05:14:03;;;;;;;;;;;;;;;-4.61;92.70;94231.47;1429097;39;22478;31
2021/03/02 05:16:12;;;;;;;;;;;;;;;-4.62;92.85;94236.94;1427806;39;20234;31
2021/03/02 05:17:16;;;;;;;;;;;;;;;-4.54;92.44;94238.09;1429547;39;20496;31
2021/03/02 05:18:20;;;;;;;;;;;;;;;-4.58;91.68;94228.25;1421685;39;21079;31
2021/03/02 05:19:37;;;;;;;;;;;;;;;-4.67;91.36;94235.22;1419833;39;20255;31
2021/03/02 05:20:52;;;;;;;;;;;;;;;-4.69;91.39;94228.75;1426623;39;21364;31
2021/03/02 05:22:05;;;;;;;;;;;;;;;-4.71;92.02;94231.66;1428458;39;20665;31
2021/03/02 05:23:10;;;;;;;;;;;;;;;-4.72;92.40;94231.94;1427395;39;21297;31
2021/03/02 05:24:23;;;;;;;;;;;;;;;-4.72;92.42;94237.94;1423561;39;20704;31
2021/03/02 05:25:37;;;;;;;;;;;;;;;-4.76;92.10;94231.75;1426734;39;21275;31
2021/03/02 05:26:51;;;;;;;;;;;;;;;-4.76;91.81;94238.81;1408938;39;20657;31
2021/03/02 05:28:05;;;;;;;;;;;;;;;-4.76;91.48;94229.16;1425101;39;21235;31
2021/03/02 05:29:19;;;;;;;;;;;;;;;-4.78;91.25;94233.09;1424979;39;21178;31
2021/03/02 05:30:33;;;;;;;;;;;;;;;-4.81;90.87;94230.03;1424869;39;21789;31
2021/03/02 05:31:47;;;;;;;;;;;;;;;-4.81;90.84;94234.47;1420101;39;21201;31
2021/03/02 05:33:01;;;;;;;;;;;;;;;-4.82;90.68;94233.69;1429376;39;20293;31
2021/03/02 05:35:20;;;;;;;;;;;;;;;-4.86;91.03;94242.38;1448120;39;21696;31
2021/03/02 05:37:37;;;;;;;;;;;;;;;-4.82;91.59;94230.31;1441277;39;20248;31
2021/03/02 05:38:51;;;;;;;;;;;;;;;-4.83;91.64;94241.78;1424786;39;22343;31
2021/03/02 05:39:56;;;;;;;;;;;;;;;-4.84;91.80;94238.41;1427947;39;20265;31
2021/03/02 05:43:35;;;;;;;;;;;;;;;-4.84;92.98;94217.56;1434067;39;20214;31
2021/03/02 05:44:40;;;;;;;;;;;;;;;-4.79;93.11;94232.31;1433925;39;20289;31
2021/03/02 05:45:54;;;;;;;;;;;;;;;-4.83;92.80;94226.16;1425045;39;20219;31
2021/03/02 05:47:09;;;;;;;;;;;;;;;-4.84;93.00;94227.97;1429628;39;20294;31
2021/03/02 05:48:22;;;;;;;;;;;;;;;-4.81;92.87;94227.41;1426663;39;20210;31
2021/03/02 05:49:36;;;;;;;;;;;;;;;-4.78;92.91;94230.47;1428305;39;21317;31
2021/03/02 05:51:59;;;;;;;;;;;;;;;-4.73;93.24;94235.62;1447384;39;20193;31
2021/03/02 05:54:06;;;;;;;;;;;;;;;-4.74;93.59;94234.84;1428121;39;20292;31
2021/03/02 05:55:19;;;;;;;;;;;;;;;-4.74;93.58;94229.63;1421028;39;21669;31
2021/03/02 05:56:33;;;;;;;;;;;;;;;-4.71;93.41;94233.47;1434059;39;20261;31
2021/03/02 05:57:47;;;;;;;;;;;;;;;-4.73;93.58;94235.62;1427574;39;20215;31
2021/03/02 05:59:02;;;;;;;;;;;;;;;-4.73;93.32;94236.38;1425082;39;21086;31
2021/03/02 06:00:06;;;;;;;;;;;;;;;-4.77;93.06;94240.66;1427428;39;22700;31
2021/03/02 06:03:44;;;;;;;;;;;;;;;-4.83;93.49;94236.56;1423302;39;22359;31
2021/03/02 06:04:58;;;;;;;;;;;;;;;-4.79;93.14;94239.37;1427909;39;20245;31
2021/03/02 06:06:12;;;;;;;;;;;;;;;-4.79;93.46;94237.53;1427155;39;20227;31
2021/03/02 06:07:26;;;;;;;;;;;;;;;-4.76;93.33;94236.97;1430601;39;20248;31
2021/03/02 06:08:41;;;;;;;;;;;;;;;-4.77;93.21;94245.84;1428277;39;21206;31
2021/03/02 06:09:54;;;;;;;;;;;;;;;-4.78;93.38;94238.31;1434004;39;21303;31
2021/03/02 06:11:08;;;;;;;;;;;;;;;-4.81;93.41;94235.22;1422516;39;20463;31
2021/03/02 06:12:23;;;;;;;;;;;;;;;-4.78;93.38;94235.69;1425621;39;20285;31
2021/03/02 06:13:37;;;;;;;;;;;;;;;-4.76;93.65;94236.19;1431787;39;20226;31
2021/03/02 06:14:51;;;;;;;;;;;;;;;-4.76;93.62;94236.97;1428209;39;22121;31
2021/03/02 06:16:05;;;;;;;;;;;;;;;-4.72;93.78;94239.78;1422534;39;20196;31
2021/03/02 06:17:19;;;;;;;;;;;;;;;-4.67;93.52;94237.06;1426361;39;20223;31
2021/03/02 06:18:33;;;;;;;;;;;;;;;-4.68;93.37;94243.34;1426759;39;21268;31
2021/03/02 06:19:47;;;;;;;;;;;;;;;-4.70;93.46;94246.22;1420243;39;20300;31
2021/03/02 06:21:01;;;;;;;;;;;;;;;-4.66;93.29;94246.41;1419670;39;20259;31
2021/03/02 06:22:15;;;;;;;;;;;;;;;-4.68;93.42;94246.72;1423358;39;20249;31
2021/03/02 06:23:29;;;;;;;;;;;;;;;-4.68;93.59;94244.09;1420858;39;21267;31
2021/03/02 06:24:43;;;;;;;;;;;;;;;-4.69;93.63;94250.41;1423406;39;20288;31
2021/03/02 06:25:56;;;;;;;;;;;;;;;-4.62;93.73;94244.78;1426854;39;21182;31
2021/03/02 06:27:10;;;;;;;;;;;;;;;-4.62;93.67;94245.53;1427984;39;22582;31
2021/03/02 06:28:24;;;;;;;;;;;;;;;-4.56;93.69;94248.84;1430467;39;21856;31
2021/03/02 06:29:38;;;;;;;;;;;;;;;-4.54;93.61;94251.91;1423209;39;20630;31
2021/03/02 06:30:52;;;;;;;;;;;;;;;-4.54;93.73;94251.16;1421866;39;21204;31
2021/03/02 06:32:06;;;;;;;;;;;;;;;-4.51;94.19;94251.34;1418849;39;20285;31
2021/03/02 06:33:17;;;;;;;;;;;;;;;-4.49;94.12;94251.03;1424090;39;20202;31
2021/03/02 06:35:35;;;;;;;;;;;;;;;-4.41;94.33;94258.19;1423248;39;21344;31
2021/03/02 06:36:48;;;;;;;;;;;;;;;-4.36;94.61;94256.22;1433799;39;20269;31
2021/03/02 06:37:53;;;;;;;;;;;;;;;-4.34;94.61;94253.34;1422551;39;21275;31
2021/03/02 06:39:06;;;;;;;;;;;;;;;-4.20;94.47;94248.06;1427767;39;20226;31
2021/03/02 06:40:20;;;;;;;;;;;;;;;-4.24;94.36;94252.34;1425514;39;20299;31
2021/03/02 06:41:34;;;;;;;;;;;;;;;-4.24;94.38;94260.19;1427041;39;20186;31
2021/03/02 06:42:40;;;;;;;;;;;;;;;-4.22;94.22;94264.00;1428333;39;41667;31
2021/03/02 06:48:31;;;;;;;;;;;;;;;-3.95;93.79;94257.97;1426828;39;20218;31
2021/03/02 06:49:45;;;;;;;;;;;;;;;-3.90;93.78;94255.22;1426994;39;20220;31
2021/03/02 06:51:00;;;;;;;;;;;;;;;-3.91;93.65;94258.88;1429009;39;22327;31
2021/03/02 06:52:14;;;;;;;;;;;;;;;-3.91;94.07;94250.28;1425992;39;22279;31
2021/03/02 06:53:19;;;;;;;;;;;;;;;-3.84;94.03;94253.28;1426933;39;21330;31
2021/03/02 06:54:32;;;;;;;;;;;;;;;-3.84;94.19;94256.66;1425797;39;20322;31
2021/03/02 06:55:46;;;;;;;;;;;;;;;-3.76;94.10;94260.41;1427930;39;20225;31
2021/03/02 06:57:00;;;;;;;;;;;;;;;-3.76;93.49;94263.00;1422958;39;21415;31
2021/03/02 07:00:23;;;;;;;;;;;;;;;-3.81;93.56;94257.91;1425733;39;20215;31
2021/03/02 07:01:34;;;;;;;;;;;;;;;-3.79;93.50;94266.22;1429237;39;20621;31
2021/03/02 07:03:43;;;;;;;;;;;;;;;-3.70;93.42;94261.81;1440851;39;20317;31
2021/03/02 07:06:54;;;;;;;;;;;;;;;-3.55;93.23;94263.31;1446340;39;21650;31
2021/03/02 07:10:07;;;;;;;;;;;;;;;-3.50;93.58;94252.72;1435002;39;20254;31
2021/03/02 07:13:28;;;;;;;;;;;;;;;-3.38;93.77;94262.59;1444175;39;20249;31
2021/03/02 07:14:42;;;;;;;;;;;;;;;-3.24;93.81;94262.56;1432547;39;21204;31
2021/03/02 07:15:56;;;;;;;;;;;;;;;-3.14;93.77;94263.06;1424318;39;21103;31
2021/03/02 07:17:12;;;;;;;;;;;;;;;-3.16;93.23;94264.41;1422044;39;21889;31
2021/03/02 07:18:30;;;;;;;;;;;;;;;-2.95;92.37;94262.81;1432318;39;20343;31
2021/03/02 07:19:35;;;;;;;;;;;;;;;-2.88;92.66;94262.41;1429056;39;21235;31
2021/03/02 07:22:50;;;;;;;;;;;;;;;-2.90;92.17;94265.31;1440716;39;21187;31
2021/03/02 07:25:12;;;;;;;;;;;;;;;-2.73;91.50;94263.81;1440592;39;20330;31
2021/03/02 07:26:25;;;;;;;;;;;;;;;-2.70;91.43;94263.22;1432776;39;20383;31
2021/03/02 07:27:39;;;;;;;;;;;;;;;-2.80;92.46;94278.13;1420593;39;20199;31
2021/03/02 07:28:55;;;;;;;;;;;;;;;-2.83;91.81;94273.50;1414392;39;21214;31
2021/03/02 07:30:08;;;;;;;;;;;;;;;-2.70;92.13;94269.22;1429019;39;20197;31
2021/03/02 07:31:14;;;;;;;;;;;;;;;-2.58;92.57;94276.50;1422208;39;20191;31
2021/03/02 07:33:32;;;;;;;;;;;;;;;-2.57;92.11;94270.19;1439745;39;21862;31
2021/03/02 07:34:46;;;;;;;;;;;;;;;-2.36;91.87;94268.56;1427853;39;21219;31
2021/03/02 07:36:00;;;;;;;;;;;;;;;-2.44;92.22;94274.53;1425065;39;20186;31
2021/03/02 07:37:15;;;;;;;;;;;;;;;-2.44;91.63;94269.31;1425474;39;21251;31
2021/03/02 07:38:29;;;;;;;;;;;;;;;-2.39;92.24;94277.00;1422760;39;20309;31
2021/03/02 07:39:42;;;;;;;;;;;;;;;-2.36;92.04;94276.41;1425464;39;20234;31
2021/03/02 07:40:56;;;;;;;;;;;;;;;-2.33;92.72;94280.25;1419454;39;20203;31
2021/03/02 07:42:01;;;;;;;;;;;;;;;-2.15;91.39;94275.81;1423796;39;20222;31
2021/03/02 07:45:16;;;;;;;;;;;;;;;-2.24;92.01;94277.63;1426601;39;20246;31
2021/03/02 07:48:32;;;;;;;;;;;;;;;-2.05;91.91;94275.53;1447962;39;23011;31
2021/03/02 07:51:46;;;;;;;;;;;;;;;-1.99;92.28;94274.28;1441701;39;22302;31
2021/03/02 07:53:00;;;;;;;;;;;;;;;-1.83;92.14;94274.59;1424319;39;20207;31
2021/03/02 07:54:14;;;;;;;;;;;;;;;-1.75;91.21;94273.06;1428101;39;21274;31
2021/03/02 07:55:28;;;;;;;;;;;;;;;-1.67;91.42;94269.66;1425942;39;22337;31
2021/03/02 07:56:33;;;;;;;;;;;;;;;-1.66;90.97;94279.06;1420278;39;21258;31
2021/03/02 07:57:36;;;;;;;;;;;;;;;-1.59;91.46;94267.03;1420431;39;22564;31
2021/03/02 07:58:50;;;;;;;;;;;;;;;-1.50;91.42;94269.63;1427888;39;20219;31
2021/03/02 08:00:04;;;;;;;;;;;;;;;-1.49;91.55;94273.81;1415629;39;21142;31
2021/03/02 08:02:37;;;;;;;;;;;;;;;-1.44;91.75;94275.50;1421800;39;20196;31
2021/03/02 08:05:59;;;;;;;;;;;;;;;-1.17;90.99;94267.28;1425354;39;20220;31
2021/03/02 08:07:27;;;;;;;;;;;;;;;-1.03;90.52;94272.31;1431604;39;20219;31
2021/03/02 08:08:42;;;;;;;;;;;;;;;-0.75;89.46;94275.28;1414936;39;20189;31
2021/03/02 08:09:47;;;;;;;;;;;;;;;-0.70;89.17;94279.59;1425415;39;21619;31
2021/03/02 08:12:04;;;;;;;;;;;;;;;-0.51;88.40;94272.88;1423928;39;20195;31
2021/03/02 08:13:36;;;;;;;;;;;;;;;-0.53;89.57;94269.81;1429930;39;20774;31
2021/03/02 08:15:43;;;;;;;;;;;;;;;-0.37;89.07;94274.50;1408959;40;20231;31
2021/03/02 08:16:55;;;;;;;;;;;;;;;-0.38;89.65;94278.22;1414802;40;21223;31
2021/03/02 08:18:17;;;;;;;;;;;;;;;-0.36;89.50;94279.44;1431006;39;20307;31
2021/03/02 08:19:30;;;;;;;;;;;;;;;-0.27;89.45;94276.75;1429914;39;21058;31
2021/03/02 08:20:44;;;;;;;;;;;;;;;-0.16;89.40;94277.94;1416970;39;20251;31
2021/03/02 08:21:58;;;;;;;;;;;;;;;-0.17;89.58;94276.41;1423533;39;20663;31
2021/03/02 08:23:03;;;;;;;;;;;;;;;-0.05;89.49;94279.09;1429107;39;20219;31
2021/03/02 08:24:05;;;;;;;;;;;;;;;0.03;89.56;94269.63;1293669;39;20306;31
2021/03/02 08:25:11;;;;;;;;;;;;;;;0.07;89.16;94283.66;1425500;39;21187;31
2021/03/02 08:27:27;;;;;;;;;;;;;;;0.22;89.89;94277.03;1424495;39;20980;31
2021/03/02 08:28:41;;;;;;;;;;;;;;;0.31;88.85;94269.87;1431331;39;20229;31
2021/03/02 08:29:51;;;;;;;;;;;;;;;0.40;89.16;94273.22;1424294;39;20199;31